createdAt,value
2023-03-22T00:00:39.649Z,99878.84
2023-03-22T00:02:11.544Z,99870.66
2023-03-22T00:03:44.309Z,99869.78
2023-03-22T00:05:16.108Z,99875.16
2023-03-22T00:06:47.862Z,99877.84
2023-03-22T00:08:19.802Z,99874.31
2023-03-22T00:09:51.500Z,99869.78
2023-03-22T00:11:25.683Z,99869.78
2023-03-22T00:12:57.765Z,99868.06
2023-03-22T00:14:29.431Z,99867.06
2023-03-22T00:16:02.877Z,99859.00
2023-03-22T00:17:36.735Z,99863.41
2023-03-22T00:19:08.587Z,99867.81
2023-03-22T00:20:47.884Z,99869.78
2023-03-22T00:22:19.587Z,99861.41
2023-03-22T00:23:51.312Z,99859.59
2023-03-22T00:25:23.497Z,99865.09
2023-03-22T00:26:55.193Z,99861.56
2023-03-22T00:28:26.969Z,99855.34
2023-03-22T00:29:58.661Z,99857.03
2023-03-22T00:31:30.410Z,99857.28
2023-03-22T00:33:02.176Z,99855.44
2023-03-22T00:34:33.934Z,99847.38
2023-03-22T00:36:09.996Z,99850.22
2023-03-22T00:37:41.700Z,99847.50
2023-03-22T00:39:13.684Z,99846.50
2023-03-22T00:40:46.168Z,99833.19
2023-03-22T00:42:17.854Z,99835.03
2023-03-22T00:43:51.252Z,99836.00
2023-03-22T00:45:22.938Z,99832.47
2023-03-22T00:46:54.694Z,99835.59
2023-03-22T00:48:26.442Z,99830.31
2023-03-22T00:49:58.406Z,99828.03
2023-03-22T00:51:30.429Z,99827.47
2023-03-22T00:53:02.335Z,99830.53
2023-03-22T00:54:34.031Z,99832.91
2023-03-22T00:56:07.279Z,99837.00
2023-03-22T00:57:48.867Z,99841.94
2023-03-22T00:59:21.521Z,99839.63
2023-03-22T01:00:56.286Z,99831.84
2023-03-22T01:02:29.953Z,99835.66
2023-03-22T01:04:01.994Z,99826.13
2023-03-22T01:05:35.241Z,99837.19
2023-03-22T01:07:08.217Z,99826.78
2023-03-22T01:08:41.600Z,99827.91
2023-03-22T01:10:13.573Z,99831.72
2023-03-22T01:11:45.886Z,99824.03
2023-03-22T01:13:18.109Z,99824.28
2023-03-22T01:14:49.934Z,99821.84
2023-03-22T01:16:21.983Z,99831.03
2023-03-22T01:17:53.820Z,99835.84
2023-03-22T01:19:27.554Z,99834.41
2023-03-22T01:21:00.461Z,99837.34
2023-03-22T01:22:32.304Z,99834.19
2023-03-22T01:24:04.178Z,99825.50
2023-03-22T01:25:35.913Z,99819.50
2023-03-22T01:27:07.706Z,99811.25
2023-03-22T01:28:40.699Z,99818.84
2023-03-22T01:30:13.040Z,99822.03
2023-03-22T01:31:45.023Z,99820.75
2023-03-22T01:33:17.693Z,99810.50
2023-03-22T01:34:49.632Z,99814.53
2023-03-22T01:36:21.366Z,99808.72
2023-03-22T01:37:53.134Z,99804.69
2023-03-22T01:39:26.505Z,99804.34
2023-03-22T01:41:02.079Z,99804.00
2023-03-22T01:42:37.095Z,99802.66
2023-03-22T01:44:13.300Z,99805.00
2023-03-22T01:45:51.660Z,99806.47
2023-03-22T01:47:24.688Z,99797.06
2023-03-22T01:48:57.889Z,99801.97
2023-03-22T01:50:31.433Z,99796.22
2023-03-22T01:52:08.277Z,99790.50
2023-03-22T01:53:50.464Z,99797.25
2023-03-22T01:55:26.227Z,99796.63
2023-03-22T01:57:10.682Z,99799.53
2023-03-22T01:58:46.728Z,99793.66
2023-03-22T02:00:22.510Z,99800.13
2023-03-22T02:02:19.815Z,99799.50
2023-03-22T02:04:07.323Z,99791.84
2023-03-22T02:09:20.546Z,99803.53
2023-03-22T02:10:54.041Z,99801.84
2023-03-22T02:12:59.567Z,99801.47
2023-03-22T02:15:11.355Z,99801.34
2023-03-22T02:17:31.096Z,99802.56
2023-03-22T02:19:42.597Z,99805.47
2023-03-22T02:21:51.791Z,99807.31
2023-03-22T02:23:48.806Z,99806.72
2023-03-22T02:25:28.013Z,99809.38
2023-03-22T02:27:05.044Z,99800.34
2023-03-22T02:28:51.705Z,99802.28
2023-03-22T02:30:36.014Z,99806.81
2023-03-22T02:32:22.546Z,99799.59
2023-03-22T02:34:25.882Z,99795.31
2023-03-22T02:36:09.276Z,99797.91
2023-03-22T02:37:49.867Z,99794.47
2023-03-22T02:39:46.796Z,99796.31
2023-03-22T02:41:32.720Z,99792.91
2023-03-22T02:43:24.827Z,99795.59
2023-03-22T02:45:41.289Z,99792.16
2023-03-22T02:47:41.384Z,99795.19
2023-03-22T02:49:28.404Z,99785.44
2023-03-22T02:51:11.663Z,99787.28
2023-03-22T02:52:51.642Z,99791.91
2023-03-22T02:54:35.885Z,99787.50
2023-03-22T02:56:13.482Z,99792.03
2023-03-22T02:57:56.564Z,99784.97
2023-03-22T02:59:31.738Z,99787.75
2023-03-22T03:01:09.191Z,99785.06
2023-03-22T03:02:47.045Z,99785.19
2023-03-22T03:04:31.152Z,99781.91
2023-03-22T03:06:13.146Z,99780.19
2023-03-22T03:07:49.647Z,99782.00
2023-03-22T03:09:22.448Z,99778.47
2023-03-22T03:10:54.815Z,99781.38
2023-03-22T03:12:28.302Z,99780.63
2023-03-22T03:14:01.592Z,99777.25
2023-03-22T03:15:33.346Z,99782.72
2023-03-22T03:17:14.451Z,99780.25
2023-03-22T03:18:52.266Z,99773.34
2023-03-22T03:20:47.640Z,99769.28
2023-03-22T03:22:56.934Z,99773.91
2023-03-22T03:24:35.987Z,99776.81
2023-03-22T03:26:20.911Z,99772.53
2023-03-22T03:28:11.459Z,99770.22
2023-03-22T03:29:50.736Z,99776.78
2023-03-22T03:31:35.014Z,99777.03
2023-03-22T03:33:09.736Z,99777.97
2023-03-22T03:35:01.415Z,99782.94
2023-03-22T03:36:37.894Z,99776.72
2023-03-22T03:38:13.480Z,99782.31
2023-03-22T03:39:53.480Z,99780.00
2023-03-22T03:41:29.056Z,99786.44
2023-03-22T03:43:05.159Z,99785.81
2023-03-22T03:44:39.005Z,99778.94
2023-03-22T03:46:11.316Z,99785.38
2023-03-22T03:47:45.662Z,99782.06
2023-03-22T03:49:18.058Z,99788.50
2023-03-22T03:50:52.566Z,99782.53
2023-03-22T03:52:26.265Z,99777.41
2023-03-22T03:53:58.000Z,99782.00
2023-03-22T03:55:31.013Z,99776.91
2023-03-22T03:57:04.105Z,99786.09
2023-03-22T03:58:36.024Z,99784.41
2023-03-22T04:00:08.434Z,99779.28
2023-03-22T04:01:50.435Z,99784.75
2023-03-22T04:03:26.041Z,99784.09
2023-03-22T04:05:23.796Z,99784.22
2023-03-22T04:06:57.291Z,99784.31
2023-03-22T04:08:29.359Z,99786.28
2023-03-22T04:10:01.801Z,99794.53
2023-03-22T04:11:37.432Z,99781.22
2023-03-22T04:13:09.551Z,99790.25
2023-03-22T04:14:41.878Z,99792.16
2023-03-22T04:16:25.118Z,99790.47
2023-03-22T04:17:56.979Z,99780.59
2023-03-22T04:19:31.402Z,99778.91
2023-03-22T04:21:03.509Z,99791.31
2023-03-22T04:22:42.822Z,99781.34
2023-03-22T04:24:14.976Z,99787.34
2023-03-22T04:25:50.552Z,99782.84
2023-03-22T04:27:29.282Z,99774.59
2023-03-22T04:29:12.583Z,99782.16
2023-03-22T04:30:52.454Z,99781.19
2023-03-22T04:32:27.257Z,99780.88
2023-03-22T04:34:05.728Z,99783.19
2023-03-22T04:35:50.496Z,99785.66
2023-03-22T04:37:27.096Z,99788.09
2023-03-22T04:39:10.517Z,99790.56
2023-03-22T04:40:46.697Z,99784.97
2023-03-22T04:42:26.726Z,99778.56
2023-03-22T04:44:11.304Z,99779.25
2023-03-22T04:45:49.128Z,99779.88
2023-03-22T04:47:26.245Z,99782.38
2023-03-22T04:48:58.218Z,99777.78
2023-03-22T04:50:29.904Z,99774.00
2023-03-22T04:52:05.398Z,99786.22
2023-03-22T04:53:41.453Z,99775.38
2023-03-22T04:55:14.610Z,99777.09
2023-03-22T04:56:47.745Z,99782.31
2023-03-22T04:58:22.187Z,99784.75
2023-03-22T04:59:53.910Z,99781.25
2023-03-22T05:01:25.765Z,99777.56
2023-03-22T05:03:06.607Z,99780.16
2023-03-22T05:04:43.753Z,99782.72
2023-03-22T05:06:23.743Z,99768.34
2023-03-22T05:08:09.037Z,99773.59
2023-03-22T05:09:41.030Z,99769.94
2023-03-22T05:11:17.684Z,99774.44
2023-03-22T05:12:58.307Z,99768.13
2023-03-22T05:14:36.560Z,99764.34
2023-03-22T05:16:10.299Z,99769.59
2023-03-22T05:17:50.538Z,99767.66
2023-03-22T05:19:24.545Z,99763.03
2023-03-22T05:20:57.417Z,99764.63
2023-03-22T05:22:29.490Z,99764.50
2023-03-22T05:24:03.866Z,99773.06
2023-03-22T05:25:36.887Z,99768.31
2023-03-22T05:27:10.992Z,99772.59
2023-03-22T05:28:44.215Z,99768.81
2023-03-22T05:30:24.398Z,99763.94
2023-03-22T05:32:04.015Z,99761.16
2023-03-22T05:33:35.903Z,99768.97
2023-03-22T05:35:08.999Z,99768.72
2023-03-22T05:36:45.172Z,99771.19
2023-03-22T05:38:28.826Z,99765.44
2023-03-22T05:40:05.539Z,99772.28
2023-03-22T05:41:41.745Z,99767.41
2023-03-22T05:43:13.567Z,99771.56
2023-03-22T05:44:49.538Z,99769.47
2023-03-22T05:46:21.660Z,99768.25
2023-03-22T05:48:12.675Z,99763.41
2023-03-22T05:49:45.715Z,99765.84
2023-03-22T05:51:17.865Z,99762.69
2023-03-22T05:52:52.570Z,99753.28
2023-03-22T05:54:49.085Z,99747.41
2023-03-22T05:56:24.656Z,99746.91
2023-03-22T05:58:05.297Z,99746.44
2023-03-22T05:59:40.614Z,99761.19
2023-03-22T06:01:20.601Z,99762.59
2023-03-22T06:02:56.751Z,99765.63
2023-03-22T06:04:30.449Z,99759.75
2023-03-22T06:06:10.635Z,99750.22
2023-03-22T06:07:51.723Z,99757.63
2023-03-22T06:09:25.357Z,99755.28
2023-03-22T06:10:58.110Z,99748.44
2023-03-22T06:12:30.587Z,99752.19
2023-03-22T06:14:12.363Z,99750.59
2023-03-22T06:16:19.323Z,99754.94
2023-03-22T06:17:51.457Z,99748.19
2023-03-22T06:19:27.763Z,99746.66
2023-03-22T06:21:00.572Z,99742.63
2023-03-22T06:22:33.586Z,99752.84
2023-03-22T06:24:05.796Z,99752.19
2023-03-22T06:25:38.591Z,99752.81
2023-03-22T06:27:10.695Z,99758.63
2023-03-22T06:28:44.332Z,99748.34
2023-03-22T06:30:17.139Z,99760.31
2023-03-22T06:32:18.156Z,99751.00
2023-03-22T06:33:50.886Z,99751.44
2023-03-22T06:35:35.244Z,99752.75
2023-03-22T06:37:08.156Z,99746.97
2023-03-22T06:38:43.163Z,99750.09
2023-03-22T06:40:15.457Z,99746.19
2023-03-22T06:41:47.460Z,99753.00
2023-03-22T06:43:19.485Z,99760.53
2023-03-22T06:44:53.958Z,99749.34
2023-03-22T06:46:35.001Z,99746.38
2023-03-22T06:48:15.071Z,99750.13
2023-03-22T06:50:07.418Z,99746.03
2023-03-22T06:52:01.862Z,99755.38
2023-03-22T06:53:33.586Z,99747.88
2023-03-22T06:55:05.629Z,99754.00
2023-03-22T06:56:37.327Z,99749.19
2023-03-22T06:58:09.212Z,99742.53
2023-03-22T06:59:40.916Z,99750.22
2023-03-22T07:01:13.762Z,99752.50
2023-03-22T07:02:45.602Z,99756.47
2023-03-22T07:04:33.207Z,99747.00
2023-03-22T07:06:07.679Z,99747.41
2023-03-22T07:07:42.424Z,99744.16
2023-03-22T07:09:14.307Z,99745.59
2023-03-22T07:10:50.227Z,99745.22
2023-03-22T07:12:23.247Z,99747.47
2023-03-22T07:13:55.764Z,99742.81
2023-03-22T07:15:27.616Z,99750.34
2023-03-22T07:17:07.777Z,99744.66
2023-03-22T07:18:39.454Z,99751.47
2023-03-22T07:20:11.515Z,99743.81
2023-03-22T07:21:43.346Z,99745.25
2023-03-22T07:23:17.624Z,99750.19
2023-03-22T07:24:58.348Z,99750.63
2023-03-22T07:26:33.466Z,99747.38
2023-03-22T07:28:07.172Z,99750.47
2023-03-22T07:29:38.883Z,99749.06
2023-03-22T07:31:12.438Z,99753.88
2023-03-22T07:32:50.635Z,99747.75
2023-03-22T07:34:22.666Z,99750.59
2023-03-22T07:36:07.567Z,99748.16
2023-03-22T07:37:39.295Z,99744.88
2023-03-22T07:39:18.054Z,99750.38
2023-03-22T07:40:56.877Z,99745.84
2023-03-22T07:42:34.854Z,99748.38
2023-03-22T07:44:23.284Z,99735.81
2023-03-22T07:46:07.623Z,99742.91
2023-03-22T07:48:01.835Z,99741.72
2023-03-22T07:49:59.664Z,99730.53
2023-03-22T07:51:35.547Z,99733.03
2023-03-22T07:53:09.677Z,99737.22
2023-03-22T07:54:41.492Z,99735.13
2023-03-22T07:56:13.883Z,99734.78
2023-03-22T07:57:46.648Z,99737.13
2023-03-22T07:59:19.199Z,99737.56
2023-03-22T08:00:51.201Z,99743.28
2023-03-22T08:02:46.296Z,99738.84
2023-03-22T08:04:38.455Z,99736.97
2023-03-22T08:06:21.581Z,99741.81
2023-03-22T08:07:54.511Z,99744.09
2023-03-22T08:09:26.702Z,99740.25
2023-03-22T08:10:58.808Z,99740.97
2023-03-22T08:12:32.599Z,99749.88
2023-03-22T08:14:12.556Z,99738.00
2023-03-22T08:15:44.390Z,99746.91
2023-03-22T08:17:17.510Z,99748.59
2023-03-22T08:18:49.422Z,99740.66
2023-03-22T08:20:21.308Z,99739.84
2023-03-22T08:22:00.472Z,99739.22
2023-03-22T08:23:52.216Z,99736.34
2023-03-22T08:25:50.662Z,99733.66
2023-03-22T08:27:22.512Z,99731.28
2023-03-22T08:28:56.346Z,99735.19
2023-03-22T08:30:28.176Z,99734.84
2023-03-22T08:32:02.594Z,99739.59
2023-03-22T08:33:34.423Z,99734.34
2023-03-22T08:35:07.084Z,99736.56
2023-03-22T08:36:38.847Z,99737.91
2023-03-22T08:38:11.122Z,99742.00
2023-03-22T08:39:50.294Z,99741.50
2023-03-22T08:41:34.767Z,99744.38
2023-03-22T08:43:06.805Z,99749.97
2023-03-22T08:44:40.706Z,99751.81
2023-03-22T08:46:12.965Z,99742.34
2023-03-22T08:47:45.440Z,99744.38
2023-03-22T08:49:17.715Z,99740.31
2023-03-22T08:50:58.712Z,99733.66
2023-03-22T08:52:40.462Z,99734.84
2023-03-22T08:54:19.165Z,99737.22
2023-03-22T08:56:24.977Z,99732.28
2023-03-22T08:58:07.645Z,99737.72
2023-03-22T08:59:46.612Z,99738.41
2023-03-22T09:01:35.232Z,99737.38
2023-03-22T09:03:08.355Z,99741.63
2023-03-22T09:04:40.339Z,99727.00
2023-03-22T09:06:13.028Z,99741.28
2023-03-22T09:07:51.601Z,99732.78
2023-03-22T09:09:32.477Z,99725.97
2023-03-22T09:11:04.589Z,99721.88
2023-03-22T09:12:37.835Z,99724.25
2023-03-22T09:14:10.296Z,99727.28
2023-03-22T09:15:44.822Z,99721.31
2023-03-22T09:17:27.900Z,99718.09
2023-03-22T09:19:02.530Z,99716.69
2023-03-22T09:20:35.598Z,99709.03
2023-03-22T09:22:08.781Z,99709.53
2023-03-22T09:23:50.551Z,99705.94
2023-03-22T09:25:25.724Z,99701.00
2023-03-22T09:26:58.707Z,99704.88
2023-03-22T09:28:31.093Z,99704.16
2023-03-22T09:30:05.654Z,99700.94
2023-03-22T09:31:37.625Z,99701.06
2023-03-22T09:33:36.516Z,99705.88
2023-03-22T09:35:08.805Z,99705.84
2023-03-22T09:36:49.891Z,99702.03
2023-03-22T09:38:25.518Z,99693.63
2023-03-22T09:39:57.940Z,99698.16
2023-03-22T09:41:49.942Z,99687.56
2023-03-22T09:43:22.261Z,99683.09
2023-03-22T09:44:55.553Z,99686.31
2023-03-22T09:46:36.031Z,99687.63
2023-03-22T09:48:37.263Z,99682.38
2023-03-22T09:50:18.846Z,99685.00
2023-03-22T09:51:52.827Z,99676.09
2023-03-22T09:53:28.302Z,99684.19
2023-03-22T09:55:00.559Z,99669.63
2023-03-22T09:56:33.324Z,99667.94
2023-03-22T09:58:23.857Z,99667.13
2023-03-22T10:00:15.010Z,99662.78
2023-03-22T10:01:51.104Z,99663.50
2023-03-22T10:03:53.534Z,99661.66
2023-03-22T10:05:50.275Z,99673.34
2023-03-22T10:07:31.394Z,99671.34
2023-03-22T10:09:14.960Z,99670.91
2023-03-22T10:10:47.075Z,99665.22
2023-03-22T10:12:21.727Z,99661.13
2023-03-22T10:14:13.288Z,99657.41
2023-03-22T10:15:52.428Z,99654.56
2023-03-22T10:17:27.105Z,99664.28
2023-03-22T10:19:17.403Z,99650.44
2023-03-22T10:21:02.855Z,99644.34
2023-03-22T10:22:38.819Z,99646.25
2023-03-22T10:24:20.126Z,99653.44
2023-03-22T10:25:53.136Z,99643.34
2023-03-22T10:27:28.730Z,99646.69
2023-03-22T10:29:09.874Z,99639.31
2023-03-22T10:30:43.379Z,99644.78
2023-03-22T10:32:56.414Z,99641.84
2023-03-22T10:34:31.440Z,99639.94
2023-03-22T10:36:06.254Z,99629.81
2023-03-22T10:37:39.746Z,99628.53
2023-03-22T10:39:32.159Z,99628.72
2023-03-22T10:41:04.469Z,99625.13
2023-03-22T10:42:38.687Z,99620.03
2023-03-22T10:44:16.440Z,99623.59
2023-03-22T10:45:50.090Z,99611.59
2023-03-22T10:47:40.731Z,99613.66
2023-03-22T10:49:23.406Z,99614.88
2023-03-22T10:50:58.095Z,99617.19
2023-03-22T10:52:49.869Z,99619.47
2023-03-22T10:54:23.099Z,99609.75
2023-03-22T10:55:56.696Z,99608.50
2023-03-22T10:57:28.576Z,99613.13
2023-03-22T10:59:00.432Z,99604.50
2023-03-22T11:00:32.288Z,99611.03
2023-03-22T11:02:04.206Z,99609.38
2023-03-22T11:03:36.500Z,99609.25
2023-03-22T11:05:23.044Z,99606.94
2023-03-22T11:06:56.341Z,99600.84
2023-03-22T11:08:28.296Z,99607.16
2023-03-22T11:10:08.572Z,99596.44
2023-03-22T11:11:51.685Z,99601.25
2023-03-22T11:13:24.560Z,99597.69
2023-03-22T11:14:56.365Z,99594.97
2023-03-22T11:16:29.563Z,99590.53
2023-03-22T11:18:32.301Z,99583.56
2023-03-22T11:20:07.983Z,99584.22
2023-03-22T11:21:42.488Z,99581.22
2023-03-22T11:23:18.087Z,99575.34
2023-03-22T11:24:51.702Z,99570.69
2023-03-22T11:26:30.359Z,99566.91
2023-03-22T11:28:05.093Z,99565.47
2023-03-22T11:29:44.047Z,99572.00
2023-03-22T11:31:19.339Z,99570.78
2023-03-22T11:33:15.776Z,99566.19
2023-03-22T11:34:47.825Z,99565.19
2023-03-22T11:36:19.551Z,99550.69
2023-03-22T11:37:54.116Z,99552.38
2023-03-22T11:39:30.780Z,99548.81
2023-03-22T11:41:08.551Z,99544.19
2023-03-22T11:42:40.531Z,99542.53
2023-03-22T11:44:16.137Z,99547.38
2023-03-22T11:45:51.473Z,99540.81
2023-03-22T11:47:26.039Z,99528.56
2023-03-22T11:49:01.567Z,99543.50
2023-03-22T11:50:37.810Z,99535.50
2023-03-22T11:52:15.749Z,99528.72
2023-03-22T11:53:48.772Z,99538.38
2023-03-22T11:55:20.831Z,99524.41
2023-03-22T11:56:58.139Z,99521.41
2023-03-22T11:58:47.693Z,99517.59
2023-03-22T12:00:23.950Z,99523.22
2023-03-22T12:02:06.655Z,99519.84
2023-03-22T12:03:42.310Z,99510.91
2023-03-22T12:05:29.819Z,99528.06
2023-03-22T12:07:05.363Z,99528.84
2023-03-22T12:08:45.203Z,99526.75
2023-03-22T12:10:27.148Z,99514.06
2023-03-22T12:12:02.035Z,99518.94
2023-03-22T12:13:49.836Z,99511.34
2023-03-22T12:15:30.916Z,99518.56
2023-03-22T12:17:11.250Z,99502.53
2023-03-22T12:18:51.417Z,99498.50
2023-03-22T12:20:35.078Z,99496.44
2023-03-22T12:22:16.024Z,99492.47
2023-03-22T12:23:47.779Z,99499.00
2023-03-22T12:25:25.097Z,99495.81
2023-03-22T12:27:23.209Z,99501.34
2023-03-22T12:29:03.209Z,99493.75
2023-03-22T12:30:43.361Z,99490.56
2023-03-22T12:32:22.302Z,99488.41
2023-03-22T12:33:56.269Z,99495.81
2023-03-22T12:35:33.372Z,99493.31
2023-03-22T12:37:07.809Z,99494.56
2023-03-22T12:38:51.270Z,99508.72
2023-03-22T12:40:31.887Z,99495.69
2023-03-22T12:42:12.849Z,99494.66
2023-03-22T12:43:52.127Z,99489.84
2023-03-22T12:45:27.933Z,99485.66
2023-03-22T12:47:16.911Z,99488.63
2023-03-22T12:48:53.749Z,99487.19
2023-03-22T12:50:44.730Z,99491.00
2023-03-22T12:52:45.646Z,99493.34
2023-03-22T12:54:22.816Z,99481.56
2023-03-22T12:55:56.238Z,99482.41
2023-03-22T12:57:28.238Z,99482.44
2023-03-22T12:59:04.706Z,99476.34
2023-03-22T13:00:48.719Z,99475.72
2023-03-22T13:02:30.312Z,99479.09
2023-03-22T13:04:31.405Z,99482.06
2023-03-22T13:06:28.044Z,99476.56
2023-03-22T13:08:03.515Z,99474.25
2023-03-22T13:09:40.573Z,99464.75
2023-03-22T13:11:23.759Z,99467.50
2023-03-22T13:13:07.593Z,99464.16
2023-03-22T13:15:16.711Z,99461.84
2023-03-22T13:16:59.536Z,99464.56
2023-03-22T13:18:38.400Z,99449.41
2023-03-22T13:20:13.669Z,99456.78
2023-03-22T13:21:49.043Z,99460.97
2023-03-22T13:23:27.854Z,99464.59
2023-03-22T13:25:04.444Z,99456.78
2023-03-22T13:26:49.645Z,99450.69
2023-03-22T13:28:29.704Z,99450.25
2023-03-22T13:30:05.093Z,99450.03
2023-03-22T13:31:42.686Z,99448.78
2023-03-22T13:33:21.490Z,99444.97
2023-03-22T13:34:53.488Z,99446.88
2023-03-22T13:36:25.858Z,99447.28
2023-03-22T13:38:24.573Z,99446.00
2023-03-22T13:40:02.067Z,99443.25
2023-03-22T13:41:35.338Z,99437.56
2023-03-22T13:43:44.650Z,99432.50
2023-03-22T13:45:33.705Z,99428.50
2023-03-22T13:47:29.694Z,99428.91
2023-03-22T13:49:01.597Z,99423.03
2023-03-22T13:50:34.541Z,99420.91
2023-03-22T13:52:08.211Z,99422.16
2023-03-22T13:53:43.951Z,99424.25
2023-03-22T13:55:41.715Z,99416.88
2023-03-22T13:57:37.831Z,99410.81
2023-03-22T14:00:08.820Z,99414.16
2023-03-22T14:01:48.080Z,99409.09
2023-03-22T14:03:35.862Z,99405.53
2023-03-22T14:05:18.410Z,99397.53
2023-03-22T14:06:56.147Z,99403.00
2023-03-22T14:08:30.414Z,99392.03
2023-03-22T14:10:21.498Z,99395.38
2023-03-22T14:12:00.431Z,99403.53
2023-03-22T14:13:42.416Z,99392.56
2023-03-22T14:15:20.338Z,99391.94
2023-03-22T14:17:13.334Z,99393.81
2023-03-22T14:18:48.788Z,99383.97
2023-03-22T14:20:24.303Z,99381.28
2023-03-22T14:52:35.795Z,99375.88
2023-03-22T14:54:17.431Z,99367.19
2023-03-22T14:55:50.647Z,99367.28
2023-03-22T14:57:28.484Z,99368.03
2023-03-22T14:59:11.760Z,99378.44
2023-03-22T15:00:43.968Z,99374.13
2023-03-22T15:02:35.879Z,99374.75
2023-03-22T15:04:13.900Z,99377.38
2023-03-22T15:05:46.123Z,99376.69
2023-03-22T15:07:19.934Z,99370.75
2023-03-22T15:08:51.844Z,99369.91
2023-03-22T15:10:33.215Z,99370.81
2023-03-22T15:12:06.000Z,99372.25
2023-03-22T15:13:40.830Z,99375.69
2023-03-22T15:15:14.236Z,99373.59
2023-03-22T15:16:49.798Z,99361.19
2023-03-22T15:18:24.655Z,99366.69
2023-03-22T15:19:56.646Z,99360.78
2023-03-22T15:21:28.528Z,99362.31
2023-03-22T15:23:14.886Z,99361.50
2023-03-22T15:25:03.999Z,99363.91
2023-03-22T15:26:36.011Z,99360.53
2023-03-22T15:28:09.888Z,99354.69
2023-03-22T15:29:43.611Z,99358.31
2023-03-22T15:31:28.169Z,99361.16
2023-03-22T15:33:06.883Z,99361.88
2023-03-22T15:34:39.014Z,99353.72
2023-03-22T15:36:17.929Z,99363.41
2023-03-22T15:37:53.274Z,99361.38
2023-03-22T15:39:37.272Z,99362.91
2023-03-22T15:41:23.690Z,99364.03
2023-03-22T15:43:24.480Z,99367.88
2023-03-22T15:45:11.740Z,99357.38
2023-03-22T15:46:55.451Z,99362.44
2023-03-22T15:48:29.980Z,99358.06
2023-03-22T15:50:04.715Z,99365.81
2023-03-22T15:51:38.614Z,99376.97
2023-03-22T15:53:31.083Z,99370.41
2023-03-22T15:55:12.184Z,99370.81
2023-03-22T15:56:49.464Z,99365.31
2023-03-22T15:58:29.612Z,99373.31
2023-03-22T16:00:01.336Z,99356.63
2023-03-22T16:01:43.714Z,99363.09
2023-03-22T16:03:15.636Z,99368.53
2023-03-22T16:04:51.888Z,99369.94
2023-03-22T16:06:28.673Z,99374.75
2023-03-22T16:08:02.988Z,99375.13
2023-03-22T16:09:34.974Z,99377.09
2023-03-22T16:11:07.111Z,99370.31
2023-03-22T16:12:38.920Z,99383.00
2023-03-22T16:14:13.289Z,99386.50
2023-03-22T16:15:46.067Z,99386.38
2023-03-22T16:17:21.014Z,99381.03
2023-03-22T16:18:53.610Z,99389.03
2023-03-22T16:20:32.537Z,99393.31
2023-03-22T16:22:04.388Z,99383.34
2023-03-22T16:23:36.430Z,99384.03
2023-03-22T16:25:14.586Z,99382.19
2023-03-22T16:26:46.536Z,99383.69
2023-03-22T16:28:18.498Z,99379.94
2023-03-22T16:29:50.507Z,99378.75
2023-03-22T16:31:23.461Z,99387.41
2023-03-22T16:32:55.740Z,99378.00
2023-03-22T16:34:27.821Z,99381.22
2023-03-22T16:35:59.653Z,99377.94
2023-03-22T16:37:35.365Z,99378.38
2023-03-22T16:39:07.170Z,99385.91
2023-03-22T16:40:49.088Z,99381.78
2023-03-22T16:42:23.593Z,99390.19
2023-03-22T16:43:58.627Z,99386.03
2023-03-22T16:45:35.043Z,99395.47
2023-03-22T16:47:12.400Z,99392.16
2023-03-22T16:48:44.671Z,99386.94
2023-03-22T16:50:17.783Z,99388.88
2023-03-22T16:51:49.598Z,99393.50
2023-03-22T16:53:21.873Z,99389.31
2023-03-22T16:54:54.856Z,99390.41
2023-03-22T16:56:30.655Z,99390.44
2023-03-22T16:58:02.946Z,99393.19
2023-03-22T16:59:34.769Z,99391.53
2023-03-22T17:01:06.815Z,99392.25
2023-03-22T17:02:39.038Z,99394.97
2023-03-22T17:04:11.597Z,99392.47
2023-03-22T17:05:44.545Z,99395.03
2023-03-22T17:07:20.179Z,99391.34
2023-03-22T17:08:52.416Z,99395.75
2023-03-22T17:10:28.960Z,99392.88
2023-03-22T17:12:00.807Z,99402.88
2023-03-22T17:13:32.747Z,99395.63
2023-03-22T17:15:27.780Z,99402.22
2023-03-22T17:16:59.711Z,99405.66
2023-03-22T17:18:31.597Z,99400.56
2023-03-22T17:20:03.434Z,99404.28
2023-03-22T17:21:35.444Z,99405.28
2023-03-22T17:23:09.496Z,99406.31
2023-03-22T17:24:42.779Z,99416.41
2023-03-22T17:26:17.500Z,99417.44
2023-03-22T17:27:50.709Z,99408.44
2023-03-22T17:29:23.260Z,99412.13
2023-03-22T17:30:57.125Z,99413.13
2023-03-22T17:32:45.733Z,99411.25
2023-03-22T17:34:22.001Z,99425.44
2023-03-22T17:35:54.207Z,99419.00
2023-03-22T17:37:26.338Z,99423.38
2023-03-22T17:39:18.774Z,99424.00
2023-03-22T17:40:55.078Z,99424.66
2023-03-22T17:42:29.665Z,99429.88
2023-03-22T17:44:01.555Z,99430.50
2023-03-22T17:46:01.074Z,99436.53
2023-03-22T17:47:39.724Z,99429.91
2023-03-22T17:49:13.899Z,99434.94
2023-03-22T17:50:45.831Z,99448.09
2023-03-22T17:52:17.743Z,99444.00
2023-03-22T17:54:33.884Z,99450.75
2023-03-22T17:57:52.356Z,99450.84
2023-03-22T17:59:07.280Z,99454.00
2023-03-22T18:00:39.600Z,99466.16
2023-03-22T18:02:27.054Z,99457.66
2023-03-22T18:03:59.784Z,99458.84
2023-03-22T18:05:34.266Z,99460.31
2023-03-22T18:07:06.232Z,99460.63
2023-03-22T18:08:38.091Z,99473.59
2023-03-22T18:10:11.234Z,99465.94
2023-03-22T18:11:43.119Z,99461.72
2023-03-22T18:13:15.498Z,99468.41
2023-03-22T18:14:47.895Z,99469.59
2023-03-22T18:16:21.618Z,99470.75
2023-03-22T18:18:13.364Z,99472.59
2023-03-22T18:20:00.609Z,99475.59
2023-03-22T18:21:37.533Z,99476.75
2023-03-22T18:23:09.415Z,99482.31
2023-03-22T18:24:41.216Z,99480.63
2023-03-22T18:27:51.198Z,99473.13
2023-03-22T18:29:23.306Z,99476.13
2023-03-22T18:30:55.275Z,99485.25
2023-03-22T18:32:38.323Z,99480.94
2023-03-22T18:34:20.569Z,99484.81
2023-03-22T18:35:56.052Z,99481.44
2023-03-22T18:37:30.037Z,99481.72
2023-03-22T18:39:26.775Z,99480.19
2023-03-22T18:42:48.551Z,99484.19
2023-03-22T18:44:21.470Z,99479.94
2023-03-22T18:46:00.736Z,99483.78
2023-03-22T18:47:37.751Z,99482.22
2023-03-22T18:49:10.410Z,99485.56
2023-03-22T18:50:42.935Z,99483.16
2023-03-22T18:52:39.971Z,99482.63
2023-03-22T18:54:10.514Z,99486.59
2023-03-22T18:55:47.887Z,99486.22
2023-03-22T18:57:25.968Z,99484.78
2023-03-22T18:59:04.756Z,99483.28
2023-03-22T19:00:37.637Z,99484.53
2023-03-22T19:02:20.653Z,99485.84
2023-03-22T19:03:56.859Z,99490.69
2023-03-22T19:05:28.718Z,99489.97
2023-03-22T19:07:01.172Z,99494.69
2023-03-22T19:08:33.265Z,99492.13
2023-03-22T19:10:06.802Z,99491.28
2023-03-22T19:11:39.289Z,99489.72
2023-03-22T19:13:11.385Z,99492.41
2023-03-22T19:16:25.443Z,99494.44
2023-03-22T19:17:57.287Z,99494.44
2023-03-22T19:19:32.444Z,99487.31
2023-03-22T19:21:11.857Z,99487.47
2023-03-22T19:22:49.645Z,99489.34
2023-03-22T19:24:22.084Z,99484.06
2023-03-22T19:25:54.532Z,99488.63
2023-03-22T19:27:26.349Z,99493.34
2023-03-22T19:28:58.969Z,99487.22
2023-03-22T19:30:30.790Z,99490.78
2023-03-22T19:32:03.458Z,99489.22
2023-03-22T19:33:55.546Z,99481.13
2023-03-22T19:35:27.581Z,99483.13
2023-03-22T19:36:59.514Z,99487.53
2023-03-22T19:38:32.859Z,99476.91
2023-03-22T19:41:03.071Z,99481.41
2023-03-22T19:42:05.444Z,99479.72
2023-03-22T19:43:38.849Z,99488.81
2023-03-22T19:45:12.006Z,99497.88
2023-03-22T19:46:44.123Z,99483.84
2023-03-22T19:48:16.664Z,99474.25
2023-03-22T19:49:48.887Z,99485.03
2023-03-22T19:51:20.777Z,99486.00